Terminal Aerodrome Forecast
Issued by NWS

Home | Current Version | Previous Version | Text Only | Print | Product List | Glossary On
Versions: 1 2 3 4 5 6 7 8 9 10 11 12 13 14 15 16
000
FTUS42 KMLB 230535
TAFLEE
TAF
KLEE 230535Z 2306/2406 04005KT P6SM FEW025 OVC050
     FM230900 04006KT P6SM SCT025 OVC050
      TEMPO 2310/2313 BKN025
     FM231300 05011KT P6SM VCSH BKN035
     FM231500 07015G24KT P6SM VCSH BKN035
      TEMPO 2316/2320 5SM SHRA BKN025
     FM240000 07012KT P6SM SCT035 BKN060
     FM240300 06009KT P6SM SCT030=

USA.gov is the U.S. government's official web portal to all federal, state and local government web resources and services.